sensor_id;sensor_type;location;lat;lon;timestamp;temperature;humidity
18207;DHT22;9229;52.354;20.886;2022-10-16T00:02:00;14.30;99.90
18207;DHT22;9229;52.354;20.886;2022-10-16T00:07:02;14.30;99.90
18207;DHT22;9229;52.354;20.886;2022-10-16T00:12:05;14.30;99.90
18207;DHT22;9229;52.354;20.886;2022-10-16T00:17:08;14.30;99.90
18207;DHT22;9229;52.354;20.886;2022-10-16T00:22:09;14.30;99.90
18207;DHT22;9229;52.354;20.886;2022-10-16T00:27:13;14.30;99.90
18207;DHT22;9229;52.354;20.886;2022-10-16T00:32:14;14.40;99.90
18207;DHT22;9229;52.354;20.886;2022-10-16T00:37:16;14.40;99.90
18207;DHT22;9229;52.354;20.886;2022-10-16T00:42:20;14.50;99.90
18207;DHT22;9229;52.354;20.886;2022-10-16T00:47:25;14.50;99.90
18207;DHT22;9229;52.354;20.886;2022-10-16T00:52:28;14.60;99.90
18207;DHT22;9229;52.354;20.886;2022-10-16T00:57:31;14.60;99.90
18207;DHT22;9229;52.354;20.886;2022-10-16T01:02:33;14.70;99.90
18207;DHT22;9229;52.354;20.886;2022-10-16T01:07:41;14.60;99.90
18207;DHT22;9229;52.354;20.886;2022-10-16T01:12:53;14.60;99.90
18207;DHT22;9229;52.354;20.886;2022-10-16T01:18:00;14.60;99.90
18207;DHT22;9229;52.354;20.886;2022-10-16T01:23:08;14.70;99.90
18207;DHT22;9229;52.354;20.886;2022-10-16T01:28:14;14.70;99.90
18207;DHT22;9229;52.354;20.886;2022-10-16T01:33:20;14.70;99.90
18207;DHT22;9229;52.354;20.886;2022-10-16T01:38:26;14.70;99.90
18207;DHT22;9229;52.354;20.886;2022-10-16T01:43:36;14.70;99.90
18207;DHT22;9229;52.354;20.886;2022-10-16T01:48:40;14.70;99.90
18207;DHT22;9229;52.354;20.886;2022-10-16T01:53:45;14.70;99.90
18207;DHT22;9229;52.354;20.886;2022-10-16T01:58:54;14.60;99.90
18207;DHT22;9229;52.354;20.886;2022-10-16T02:04:00;14.60;99.90
18207;DHT22;9229;52.354;20.886;2022-10-16T02:09:03;14.60;99.90
18207;DHT22;9229;52.354;20.886;2022-10-16T02:14:07;14.60;99.90
18207;DHT22;9229;52.354;20.886;2022-10-16T02:19:11;14.60;99.90
18207;DHT22;9229;52.354;20.886;2022-10-16T02:24:19;14.60;99.90
18207;DHT22;9229;52.354;20.886;2022-10-16T02:29:25;14.50;99.90
18207;DHT22;9229;52.354;20.886;2022-10-16T02:34:28;14.50;99.90
18207;DHT22;9229;52.354;20.886;2022-10-16T02:39:31;14.50;99.90
18207;DHT22;9229;52.354;20.886;2022-10-16T02:44:35;14.50;99.90
18207;DHT22;9229;52.354;20.886;2022-10-16T02:49:37;14.50;99.90
18207;DHT22;9229;52.354;20.886;2022-10-16T02:54:39;14.50;99.90
18207;DHT22;9229;52.354;20.886;2022-10-16T02:59:42;14.50;99.90
18207;DHT22;9229;52.354;20.886;2022-10-16T03:04:43;14.40;99.90
18207;DHT22;9229;52.354;20.886;2022-10-16T03:09:45;14.40;99.90
18207;DHT22;9229;52.354;20.886;2022-10-16T03:14:48;14.40;99.90
18207;DHT22;9229;52.354;20.886;2022-10-16T03:19:50;14.30;99.90
18207;DHT22;9229;52.354;20.886;2022-10-16T03:24:52;14.30;99.90
18207;DHT22;9229;52.354;20.886;2022-10-16T03:29:55;14.30;99.90
18207;DHT22;9229;52.354;20.886;2022-10-16T03:34:57;14.20;99.90
18207;DHT22;9229;52.354;20.886;2022-10-16T03:39:59;14.20;99.90
18207;DHT22;9229;52.354;20.886;2022-10-16T03:45:03;14.20;99.90
18207;DHT22;9229;52.354;20.886;2022-10-16T03:50:05;14.20;99.90
18207;DHT22;9229;52.354;20.886;2022-10-16T03:55:08;14.10;99.90
18207;DHT22;9229;52.354;20.886;2022-10-16T04:00:13;14.00;99.90
18207;DHT22;9229;52.354;20.886;2022-10-16T04:05:15;14.00;99.90
18207;DHT22;9229;52.354;20.886;2022-10-16T04:10:17;13.90;99.90
18207;DHT22;9229;52.354;20.886;2022-10-16T04:15:21;13.70;99.90
18207;DHT22;9229;52.354;20.886;2022-10-16T04:20:23;13.60;99.90
18207;DHT22;9229;52.354;20.886;2022-10-16T04:25:25;13.50;99.90
18207;DHT22;9229;52.354;20.886;2022-10-16T04:30:28;13.50;99.90
18207;DHT22;9229;52.354;20.886;2022-10-16T04:35:29;13.30;99.90
18207;DHT22;9229;52.354;20.886;2022-10-16T04:40:31;13.20;99.90
18207;DHT22;9229;52.354;20.886;2022-10-16T04:45:37;13.10;99.90
18207;DHT22;9229;52.354;20.886;2022-10-16T04:50:39;12.90;99.90
18207;DHT22;9229;52.354;20.886;2022-10-16T04:55:42;12.80;99.90
18207;DHT22;9229;52.354;20.886;2022-10-16T05:00:45;12.70;99.90
18207;DHT22;9229;52.354;20.886;2022-10-16T05:05:47;12.60;99.90
18207;DHT22;9229;52.354;20.886;2022-10-16T05:10:49;12.50;99.90
18207;DHT22;9229;52.354;20.886;2022-10-16T05:15:52;12.40;99.90
18207;DHT22;9229;52.354;20.886;2022-10-16T05:20:55;12.40;99.90
18207;DHT22;9229;52.354;20.886;2022-10-16T05:25:59;12.40;99.90
18207;DHT22;9229;52.354;20.886;2022-10-16T05:31:05;12.40;99.90
18207;DHT22;9229;52.354;20.886;2022-10-16T05:36:09;12.30;99.90
18207;DHT22;9229;52.354;20.886;2022-10-16T05:41:10;12.30;99.90
18207;DHT22;9229;52.354;20.886;2022-10-16T05:46:15;12.40;99.90
18207;DHT22;9229;52.354;20.886;2022-10-16T05:51:17;12.40;99.90
18207;DHT22;9229;52.354;20.886;2022-10-16T05:56:18;12.50;99.90
18207;DHT22;9229;52.354;20.886;2022-10-16T06:01:21;12.60;99.90
18207;DHT22;9229;52.354;20.886;2022-10-16T06:06:26;12.60;99.90
18207;DHT22;9229;52.354;20.886;2022-10-16T06:11:31;12.70;99.90
18207;DHT22;9229;52.354;20.886;2022-10-16T06:16:34;12.80;99.90
18207;DHT22;9229;52.354;20.886;2022-10-16T06:21:36;12.90;99.90
18207;DHT22;9229;52.354;20.886;2022-10-16T06:26:38;13.10;99.90
18207;DHT22;9229;52.354;20.886;2022-10-16T06:31:41;13.20;99.90
18207;DHT22;9229;52.354;20.886;2022-10-16T06:36:43;13.40;99.90
18207;DHT22;9229;52.354;20.886;2022-10-16T06:41:45;13.70;99.90
18207;DHT22;9229;52.354;20.886;2022-10-16T06:46:51;13.90;99.90
18207;DHT22;9229;52.354;20.886;2022-10-16T06:51:53;14.30;99.90
18207;DHT22;9229;52.354;20.886;2022-10-16T06:56:54;14.80;99.90
18207;DHT22;9229;52.354;20.886;2022-10-16T07:01:58;15.20;99.90
18207;DHT22;9229;52.354;20.886;2022-10-16T07:07:00;15.90;99.90
18207;DHT22;9229;52.354;20.886;2022-10-16T07:12:02;16.10;99.90
18207;DHT22;9229;52.354;20.886;2022-10-16T07:17:05;15.90;99.90
18207;DHT22;9229;52.354;20.886;2022-10-16T07:22:07;15.80;99.90
18207;DHT22;9229;52.354;20.886;2022-10-16T07:27:09;15.70;99.90
18207;DHT22;9229;52.354;20.886;2022-10-16T07:32:12;15.70;99.90
18207;DHT22;9229;52.354;20.886;2022-10-16T07:37:14;15.80;99.90
18207;DHT22;9229;52.354;20.886;2022-10-16T07:42:16;16.00;99.90
18207;DHT22;9229;52.354;20.886;2022-10-16T07:47:19;16.60;99.90
18207;DHT22;9229;52.354;20.886;2022-10-16T07:52:21;17.20;99.90
18207;DHT22;9229;52.354;20.886;2022-10-16T07:57:23;17.60;99.90
18207;DHT22;9229;52.354;20.886;2022-10-16T08:02:26;17.70;99.90
18207;DHT22;9229;52.354;20.886;2022-10-16T08:07:28;17.80;99.90
18207;DHT22;9229;52.354;20.886;2022-10-16T08:12:30;17.80;99.90
18207;DHT22;9229;52.354;20.886;2022-10-16T08:17:33;18.00;99.90
18207;DHT22;9229;52.354;20.886;2022-10-16T08:22:35;18.50;99.90
18207;DHT22;9229;52.354;20.886;2022-10-16T08:27:39;18.70;99.90
18207;DHT22;9229;52.354;20.886;2022-10-16T08:32:44;18.80;99.90
18207;DHT22;9229;52.354;20.886;2022-10-16T08:37:46;18.90;99.90
18207;DHT22;9229;52.354;20.886;2022-10-16T08:43:11;19.20;99.90
18207;DHT22;9229;52.354;20.886;2022-10-16T08:48:23;19.40;99.90
18207;DHT22;9229;52.354;20.886;2022-10-16T08:53:31;19.30;99.90
18207;DHT22;9229;52.354;20.886;2022-10-16T08:58:35;19.30;99.90
18207;DHT22;9229;52.354;20.886;2022-10-16T09:09:31;19.50;99.90
18207;DHT22;9229;52.354;20.886;2022-10-16T09:14:55;20.00;99.90
18207;DHT22;9229;52.354;20.886;2022-10-16T09:20:17;20.80;99.90
18207;DHT22;9229;52.354;20.886;2022-10-16T09:25:21;21.40;99.90
18207;DHT22;9229;52.354;20.886;2022-10-16T09:30:26;21.10;99.90
18207;DHT22;9229;52.354;20.886;2022-10-16T09:35:36;21.00;99.90
18207;DHT22;9229;52.354;20.886;2022-10-16T09:40:39;20.80;99.90
18207;DHT22;9229;52.354;20.886;2022-10-16T09:45:53;20.50;99.90
18207;DHT22;9229;52.354;20.886;2022-10-16T09:50:58;20.50;99.90
18207;DHT22;9229;52.354;20.886;2022-10-16T09:56:00;20.90;99.90
18207;DHT22;9229;52.354;20.886;2022-10-16T10:01:04;21.40;99.90
18207;DHT22;9229;52.354;20.886;2022-10-16T10:06:21;21.70;99.90
18207;DHT22;9229;52.354;20.886;2022-10-16T10:11:51;22.00;99.90
18207;DHT22;9229;52.354;20.886;2022-10-16T10:17:10;22.00;99.90
18207;DHT22;9229;52.354;20.886;2022-10-16T10:22:26;21.70;99.90
18207;DHT22;9229;52.354;20.886;2022-10-16T10:27:36;21.50;99.90
18207;DHT22;9229;52.354;20.886;2022-10-16T10:32:46;21.20;99.90
18207;DHT22;9229;52.354;20.886;2022-10-16T10:38:04;20.90;99.90
18207;DHT22;9229;52.354;20.886;2022-10-16T10:43:16;20.90;99.90
18207;DHT22;9229;52.354;20.886;2022-10-16T10:48:40;21.00;99.90
18207;DHT22;9229;52.354;20.886;2022-10-16T10:53:54;21.10;99.90
18207;DHT22;9229;52.354;20.886;2022-10-16T10:59:19;21.30;99.90
18207;DHT22;9229;52.354;20.886;2022-10-16T11:04:39;21.30;99.90
18207;DHT22;9229;52.354;20.886;2022-10-16T11:09:47;21.50;99.90
18207;DHT22;9229;52.354;20.886;2022-10-16T11:14:56;21.80;99.90
18207;DHT22;9229;52.354;20.886;2022-10-16T11:20:03;21.90;99.90
18207;DHT22;9229;52.354;20.886;2022-10-16T11:25:14;21.80;99.90
18207;DHT22;9229;52.354;20.886;2022-10-16T11:30:20;21.60;99.90
18207;DHT22;9229;52.354;20.886;2022-10-16T11:35:29;21.60;99.90
18207;DHT22;9229;52.354;20.886;2022-10-16T11:40:38;21.60;99.90
18207;DHT22;9229;52.354;20.886;2022-10-16T11:45:45;21.30;99.90
18207;DHT22;9229;52.354;20.886;2022-10-16T11:50:51;21.30;99.90
18207;DHT22;9229;52.354;20.886;2022-10-16T11:55:55;21.40;99.90
18207;DHT22;9229;52.354;20.886;2022-10-16T12:01:02;21.50;99.90
18207;DHT22;9229;52.354;20.886;2022-10-16T12:06:18;21.60;99.90
18207;DHT22;9229;52.354;20.886;2022-10-16T12:11:34;21.70;99.90
18207;DHT22;9229;52.354;20.886;2022-10-16T12:16:37;21.60;99.90
18207;DHT22;9229;52.354;20.886;2022-10-16T12:21:39;21.50;99.90
18207;DHT22;9229;52.354;20.886;2022-10-16T12:26:44;21.60;99.90
18207;DHT22;9229;52.354;20.886;2022-10-16T12:31:48;21.80;99.90
18207;DHT22;9229;52.354;20.886;2022-10-16T12:36:50;21.80;99.90
18207;DHT22;9229;52.354;20.886;2022-10-16T12:42:04;21.70;99.90
18207;DHT22;9229;52.354;20.886;2022-10-16T12:47:19;21.60;99.90
18207;DHT22;9229;52.354;20.886;2022-10-16T12:52:34;21.70;99.90
18207;DHT22;9229;52.354;20.886;2022-10-16T12:57:47;21.70;99.90
18207;DHT22;9229;52.354;20.886;2022-10-16T13:03:20;21.70;99.90
18207;DHT22;9229;52.354;20.886;2022-10-16T13:08:51;21.40;99.90
18207;DHT22;9229;52.354;20.886;2022-10-16T13:14:14;21.10;99.90
18207;DHT22;9229;52.354;20.886;2022-10-16T13:19:29;21.00;99.90
18207;DHT22;9229;52.354;20.886;2022-10-16T13:24:49;20.90;99.90
18207;DHT22;9229;52.354;20.886;2022-10-16T13:30:01;20.80;99.90
18207;DHT22;9229;52.354;20.886;2022-10-16T13:35:19;20.60;99.90
18207;DHT22;9229;52.354;20.886;2022-10-16T13:40:23;20.70;99.90
18207;DHT22;9229;52.354;20.886;2022-10-16T13:45:26;20.80;99.90
18207;DHT22;9229;52.354;20.886;2022-10-16T13:50:28;20.80;99.90
18207;DHT22;9229;52.354;20.886;2022-10-16T13:55:31;20.70;99.90
18207;DHT22;9229;52.354;20.886;2022-10-16T14:00:34;20.50;99.90
18207;DHT22;9229;52.354;20.886;2022-10-16T14:05:36;20.30;99.90
18207;DHT22;9229;52.354;20.886;2022-10-16T14:10:48;20.20;99.90
18207;DHT22;9229;52.354;20.886;2022-10-16T14:15:52;20.10;99.90
18207;DHT22;9229;52.354;20.886;2022-10-16T14:21:02;20.10;99.90
18207;DHT22;9229;52.354;20.886;2022-10-16T14:26:13;20.10;99.90
18207;DHT22;9229;52.354;20.886;2022-10-16T14:31:28;20.00;99.90
18207;DHT22;9229;52.354;20.886;2022-10-16T14:36:30;19.90;99.90
18207;DHT22;9229;52.354;20.886;2022-10-16T14:41:41;20.00;99.90
18207;DHT22;9229;52.354;20.886;2022-10-16T14:46:46;20.00;99.90
18207;DHT22;9229;52.354;20.886;2022-10-16T14:51:48;20.00;99.90
18207;DHT22;9229;52.354;20.886;2022-10-16T14:56:52;20.00;99.90
18207;DHT22;9229;52.354;20.886;2022-10-16T15:01:56;19.90;99.90
18207;DHT22;9229;52.354;20.886;2022-10-16T15:06:58;19.80;99.90
18207;DHT22;9229;52.354;20.886;2022-10-16T15:12:00;19.60;99.90
18207;DHT22;9229;52.354;20.886;2022-10-16T15:17:03;19.60;99.90
18207;DHT22;9229;52.354;20.886;2022-10-16T15:22:05;19.40;99.90
18207;DHT22;9229;52.354;20.886;2022-10-16T15:27:07;19.30;99.90
18207;DHT22;9229;52.354;20.886;2022-10-16T15:32:11;19.20;99.90
18207;DHT22;9229;52.354;20.886;2022-10-16T15:37:13;19.10;99.90
18207;DHT22;9229;52.354;20.886;2022-10-16T15:42:15;19.00;99.90
18207;DHT22;9229;52.354;20.886;2022-10-16T15:47:18;18.90;99.90
18207;DHT22;9229;52.354;20.886;2022-10-16T15:52:20;18.80;99.90
18207;DHT22;9229;52.354;20.886;2022-10-16T15:57:22;18.70;99.90
18207;DHT22;9229;52.354;20.886;2022-10-16T16:02:25;18.70;99.90
18207;DHT22;9229;52.354;20.886;2022-10-16T16:07:27;18.60;99.90
18207;DHT22;9229;52.354;20.886;2022-10-16T16:12:29;18.60;99.90
18207;DHT22;9229;52.354;20.886;2022-10-16T16:17:32;18.50;99.90
18207;DHT22;9229;52.354;20.886;2022-10-16T16:22:34;18.50;99.90
18207;DHT22;9229;52.354;20.886;2022-10-16T16:27:36;18.40;99.90
18207;DHT22;9229;52.354;20.886;2022-10-16T16:32:40;18.40;99.90
18207;DHT22;9229;52.354;20.886;2022-10-16T16:37:43;18.40;99.90
18207;DHT22;9229;52.354;20.886;2022-10-16T16:42:47;18.30;99.90
18207;DHT22;9229;52.354;20.886;2022-10-16T16:47:51;18.30;99.90
18207;DHT22;9229;52.354;20.886;2022-10-16T16:52:53;18.20;99.90
18207;DHT22;9229;52.354;20.886;2022-10-16T16:57:55;18.20;99.90
18207;DHT22;9229;52.354;20.886;2022-10-16T17:02:58;18.00;99.90
18207;DHT22;9229;52.354;20.886;2022-10-16T17:08:00;17.90;99.90
18207;DHT22;9229;52.354;20.886;2022-10-16T17:13:02;17.80;99.90
18207;DHT22;9229;52.354;20.886;2022-10-16T17:18:05;17.90;99.90
18207;DHT22;9229;52.354;20.886;2022-10-16T17:23:07;17.70;99.90
18207;DHT22;9229;52.354;20.886;2022-10-16T17:28:10;17.60;99.90
18207;DHT22;9229;52.354;20.886;2022-10-16T17:33:13;17.50;99.90
18207;DHT22;9229;52.354;20.886;2022-10-16T17:38:15;17.40;99.90
18207;DHT22;9229;52.354;20.886;2022-10-16T17:43:17;17.30;99.90
18207;DHT22;9229;52.354;20.886;2022-10-16T17:48:20;17.30;99.90
18207;DHT22;9229;52.354;20.886;2022-10-16T17:53:23;17.20;99.90
18207;DHT22;9229;52.354;20.886;2022-10-16T17:58:25;17.20;99.90
18207;DHT22;9229;52.354;20.886;2022-10-16T18:03:28;17.10;99.90
18207;DHT22;9229;52.354;20.886;2022-10-16T18:08:31;17.00;99.90
18207;DHT22;9229;52.354;20.886;2022-10-16T18:13:36;17.10;99.90
18207;DHT22;9229;52.354;20.886;2022-10-16T18:18:41;16.90;99.90
18207;DHT22;9229;52.354;20.886;2022-10-16T18:23:44;16.90;99.90
18207;DHT22;9229;52.354;20.886;2022-10-16T18:28:47;16.80;99.90
18207;DHT22;9229;52.354;20.886;2022-10-16T18:33:51;16.80;99.90
18207;DHT22;9229;52.354;20.886;2022-10-16T18:38:53;16.70;99.90
18207;DHT22;9229;52.354;20.886;2022-10-16T18:43:55;16.60;99.90
18207;DHT22;9229;52.354;20.886;2022-10-16T18:48:59;16.50;99.90
18207;DHT22;9229;52.354;20.886;2022-10-16T18:54:05;16.40;99.90
18207;DHT22;9229;52.354;20.886;2022-10-16T18:59:08;16.30;99.90
18207;DHT22;9229;52.354;20.886;2022-10-16T19:04:14;16.30;99.90
18207;DHT22;9229;52.354;20.886;2022-10-16T19:09:17;16.10;99.90
18207;DHT22;9229;52.354;20.886;2022-10-16T19:14:21;15.90;99.90
18207;DHT22;9229;52.354;20.886;2022-10-16T19:19:24;15.80;99.90
18207;DHT22;9229;52.354;20.886;2022-10-16T19:24:26;15.80;99.90
18207;DHT22;9229;52.354;20.886;2022-10-16T19:29:28;15.70;99.90
18207;DHT22;9229;52.354;20.886;2022-10-16T19:34:31;15.70;99.90
18207;DHT22;9229;52.354;20.886;2022-10-16T19:39:33;15.60;99.90
18207;DHT22;9229;52.354;20.886;2022-10-16T19:44:35;15.50;99.90
18207;DHT22;9229;52.354;20.886;2022-10-16T19:49:39;15.40;99.90
18207;DHT22;9229;52.354;20.886;2022-10-16T19:54:40;15.40;99.90
18207;DHT22;9229;52.354;20.886;2022-10-16T19:59:42;15.30;99.90
18207;DHT22;9229;52.354;20.886;2022-10-16T20:04:46;15.10;99.90
18207;DHT22;9229;52.354;20.886;2022-10-16T20:09:48;15.20;99.90
18207;DHT22;9229;52.354;20.886;2022-10-16T20:14:49;15.10;99.90
18207;DHT22;9229;52.354;20.886;2022-10-16T20:19:53;15.00;99.90
18207;DHT22;9229;52.354;20.886;2022-10-16T20:24:54;14.90;99.90
18207;DHT22;9229;52.354;20.886;2022-10-16T20:29:57;14.90;99.90
18207;DHT22;9229;52.354;20.886;2022-10-16T20:35:00;14.80;99.90
18207;DHT22;9229;52.354;20.886;2022-10-16T20:40:02;14.80;99.90
18207;DHT22;9229;52.354;20.886;2022-10-16T20:45:05;14.80;99.90
18207;DHT22;9229;52.354;20.886;2022-10-16T20:50:09;14.80;99.90
18207;DHT22;9229;52.354;20.886;2022-10-16T20:55:11;14.80;99.90
18207;DHT22;9229;52.354;20.886;2022-10-16T21:00:15;14.80;99.90
18207;DHT22;9229;52.354;20.886;2022-10-16T21:05:19;14.80;99.90
18207;DHT22;9229;52.354;20.886;2022-10-16T21:10:21;14.80;99.90
18207;DHT22;9229;52.354;20.886;2022-10-16T21:15:23;14.70;99.90
18207;DHT22;9229;52.354;20.886;2022-10-16T21:20:26;14.70;99.90
18207;DHT22;9229;52.354;20.886;2022-10-16T21:25:28;14.60;99.90
18207;DHT22;9229;52.354;20.886;2022-10-16T21:30:30;14.60;99.90
18207;DHT22;9229;52.354;20.886;2022-10-16T21:35:33;14.60;99.90
18207;DHT22;9229;52.354;20.886;2022-10-16T21:40:35;14.60;99.90
18207;DHT22;9229;52.354;20.886;2022-10-16T21:45:36;14.60;99.90
18207;DHT22;9229;52.354;20.886;2022-10-16T21:50:46;14.60;99.90
18207;DHT22;9229;52.354;20.886;2022-10-16T21:55:48;14.70;99.90
18207;DHT22;9229;52.354;20.886;2022-10-16T22:00:50;14.60;99.90
18207;DHT22;9229;52.354;20.886;2022-10-16T22:05:54;14.70;99.90
18207;DHT22;9229;52.354;20.886;2022-10-16T22:11:02;14.60;99.90
18207;DHT22;9229;52.354;20.886;2022-10-16T22:16:04;14.60;99.90
18207;DHT22;9229;52.354;20.886;2022-10-16T22:21:10;14.50;99.90
18207;DHT22;9229;52.354;20.886;2022-10-16T22:26:12;14.50;99.90
18207;DHT22;9229;52.354;20.886;2022-10-16T22:31:14;14.40;99.90
18207;DHT22;9229;52.354;20.886;2022-10-16T22:36:18;14.20;99.90
18207;DHT22;9229;52.354;20.886;2022-10-16T22:41:20;14.00;99.90
18207;DHT22;9229;52.354;20.886;2022-10-16T22:46:25;14.00;99.90
18207;DHT22;9229;52.354;20.886;2022-10-16T22:51:29;13.90;99.90
18207;DHT22;9229;52.354;20.886;2022-10-16T22:56:30;13.80;99.90
18207;DHT22;9229;52.354;20.886;2022-10-16T23:01:37;13.70;99.90
18207;DHT22;9229;52.354;20.886;2022-10-16T23:06:41;13.60;99.90
18207;DHT22;9229;52.354;20.886;2022-10-16T23:11:43;13.50;99.90
18207;DHT22;9229;52.354;20.886;2022-10-16T23:16:45;13.30;99.90
18207;DHT22;9229;52.354;20.886;2022-10-16T23:21:48;13.20;99.90
18207;DHT22;9229;52.354;20.886;2022-10-16T23:26:50;13.10;99.90
18207;DHT22;9229;52.354;20.886;2022-10-16T23:31:52;13.10;99.90
18207;DHT22;9229;52.354;20.886;2022-10-16T23:36:56;13.00;99.90
18207;DHT22;9229;52.354;20.886;2022-10-16T23:41:58;12.90;99.90
18207;DHT22;9229;52.354;20.886;2022-10-16T23:46:59;12.80;99.90
18207;DHT22;9229;52.354;20.886;2022-10-16T23:52:03;12.60;99.90
18207;DHT22;9229;52.354;20.886;2022-10-16T23:57:05;12.50;99.90
